createdAt,value
2023-01-12T00:02:57.267Z,100414.50
2023-01-12T00:07:00.324Z,100414.66
2023-01-12T00:11:02.895Z,100419.34
2023-01-12T00:15:05.431Z,100433.09
2023-01-12T00:19:13.290Z,100428.78
2023-01-12T00:23:15.413Z,100429.41
2023-01-12T00:27:19.972Z,100439.09
2023-01-12T00:31:22.718Z,100443.25
2023-01-12T00:35:24.487Z,100441.59
2023-01-12T00:39:26.543Z,100453.25
2023-01-12T00:43:46.764Z,100444.72
2023-01-12T00:47:49.003Z,100442.28
2023-01-12T00:51:51.077Z,100444.69
2023-01-12T00:55:53.147Z,100447.31
2023-01-12T00:59:58.077Z,100447.28
2023-01-12T01:04:00.934Z,100449.00
2023-01-12T01:08:04.482Z,100449.97
2023-01-12T01:12:06.607Z,100444.81
2023-01-12T01:16:09.084Z,100441.34
2023-01-12T01:20:12.479Z,100440.34
2023-01-12T01:24:15.086Z,100442.66
2023-01-12T01:28:17.754Z,100427.88
2023-01-12T01:32:19.901Z,100434.94
2023-01-12T01:36:22.036Z,100435.84
2023-01-12T01:40:24.498Z,100441.88
2023-01-12T01:44:29.703Z,100434.81
2023-01-12T01:48:34.109Z,100434.03
2023-01-12T01:52:41.457Z,100435.53
2023-01-12T01:56:45.351Z,100439.31
2023-01-12T02:00:47.499Z,100436.81
2023-01-12T02:04:49.546Z,100440.88
2023-01-12T02:08:57.515Z,100445.69
2023-01-12T02:13:18.161Z,100431.31
2023-01-12T02:17:53.676Z,100440.63
2023-01-12T02:22:20.984Z,100441.81
2023-01-12T02:26:38.198Z,100448.34
2023-01-12T02:30:51.961Z,100448.84
2023-01-12T02:35:34.970Z,100457.91
2023-01-12T02:39:58.981Z,100465.66
2023-01-12T02:44:02.567Z,100458.00
2023-01-12T02:48:12.109Z,100461.06
2023-01-12T02:52:17.864Z,100464.72
2023-01-12T02:56:30.254Z,100460.97
2023-01-12T03:00:35.596Z,100460.19
2023-01-12T03:04:38.038Z,100460.66
2023-01-12T03:08:40.294Z,100463.47
2023-01-12T03:12:44.924Z,100466.06
2023-01-12T03:16:46.788Z,100487.72
2023-01-12T03:20:53.575Z,100478.88
2023-01-12T03:24:59.046Z,100477.16
2023-01-12T03:29:15.054Z,100475.28
2023-01-12T03:33:17.445Z,100475.22
2023-01-12T03:37:34.643Z,100478.72
2023-01-12T03:41:41.837Z,100478.88
2023-01-12T03:45:52.420Z,100487.41
2023-01-12T03:49:57.832Z,100489.13
2023-01-12T03:54:00.533Z,100494.69
2023-01-12T03:58:02.736Z,100486.16
2023-01-12T04:02:04.769Z,100477.38
2023-01-12T04:06:08.263Z,100476.66
2023-01-12T04:10:10.614Z,100473.06
2023-01-12T04:14:12.577Z,100479.00
2023-01-12T04:18:14.675Z,100472.41
2023-01-12T04:22:35.496Z,100471.91
2023-01-12T04:26:37.493Z,100474.53
2023-01-12T04:30:39.623Z,100476.03
2023-01-12T04:34:41.655Z,100487.94
2023-01-12T04:38:43.394Z,100479.19
2023-01-12T04:43:07.026Z,100477.31
2023-01-12T04:47:10.972Z,100475.47
2023-01-12T04:51:12.822Z,100477.13
2023-01-12T04:55:14.831Z,100478.78
2023-01-12T04:59:16.599Z,100488.28
2023-01-12T05:03:18.660Z,100484.06
2023-01-12T05:07:20.685Z,100483.94
2023-01-12T05:11:28.436Z,100478.56
2023-01-12T05:15:30.484Z,100474.81
2023-01-12T05:19:32.467Z,100477.28
2023-01-12T05:23:34.587Z,100482.56
2023-01-12T05:27:36.535Z,100472.97
2023-01-12T05:31:38.555Z,100473.78
2023-01-12T05:35:40.499Z,100480.59
2023-01-12T05:39:42.513Z,100485.81
2023-01-12T05:43:50.253Z,100501.38
2023-01-12T05:47:59.813Z,100500.63
2023-01-12T05:52:01.861Z,100501.22
2023-01-12T05:56:08.383Z,100508.31
2023-01-12T06:00:10.861Z,100510.94
2023-01-12T06:04:14.391Z,100518.75
2023-01-12T06:08:16.441Z,100522.28
2023-01-12T06:12:36.590Z,100529.06
2023-01-12T06:16:40.941Z,100528.72
2023-01-12T06:20:42.998Z,100540.78
2023-01-12T06:24:48.945Z,100531.53
2023-01-12T06:28:51.027Z,100527.47
2023-01-12T06:32:53.105Z,100541.28
2023-01-12T06:36:55.063Z,100549.22
2023-01-12T06:41:08.790Z,100548.31
2023-01-12T06:45:10.933Z,100555.38
2023-01-12T06:49:12.905Z,100551.75
2023-01-12T06:53:14.865Z,100551.47
2023-01-12T06:57:17.144Z,100546.81
2023-01-12T07:01:19.571Z,100563.56
2023-01-12T07:05:21.583Z,100557.59
2023-01-12T07:09:23.561Z,100567.50
2023-01-12T07:13:25.439Z,100574.41
2023-01-12T07:17:27.423Z,100581.72
2023-01-12T07:21:29.493Z,100593.41
2023-01-12T07:25:31.492Z,100588.00
2023-01-12T07:29:33.441Z,100588.50
2023-01-12T07:33:37.718Z,100584.66
2023-01-12T07:37:39.696Z,100583.19
2023-01-12T07:42:00.440Z,100585.50
2023-01-12T07:46:02.609Z,100585.13
2023-01-12T07:50:05.308Z,100587.97
2023-01-12T07:54:07.345Z,100596.28
2023-01-12T07:58:10.063Z,100600.22
2023-01-12T08:02:16.591Z,100601.00
2023-01-12T08:06:18.744Z,100607.66
2023-01-12T08:10:20.974Z,100613.53
2023-01-12T08:14:28.119Z,100611.75
2023-01-12T08:18:59.717Z,100614.84
2023-01-12T08:23:16.672Z,100607.41
2023-01-12T08:27:23.070Z,100612.81
2023-01-12T08:31:26.299Z,100618.44
2023-01-12T08:35:32.296Z,100622.00
2023-01-12T08:39:35.368Z,100615.44
2023-01-12T08:43:55.944Z,100618.13
2023-01-12T08:47:58.010Z,100626.41
2023-01-12T08:52:00.012Z,100624.03
2023-01-12T08:56:02.180Z,100622.69
2023-01-12T09:00:05.165Z,100613.78
2023-01-12T09:04:07.141Z,100609.47
2023-01-12T09:08:08.826Z,100602.41
2023-01-12T09:12:10.772Z,100587.06
2023-01-12T09:16:16.314Z,100588.34
2023-01-12T09:20:18.334Z,100570.63
2023-01-12T09:24:20.581Z,100561.84
2023-01-12T09:28:23.228Z,100558.81
2023-01-12T09:32:29.147Z,100545.72
2023-01-12T09:36:39.770Z,100541.56
2023-01-12T09:40:43.121Z,100533.44
2023-01-12T09:45:07.784Z,100530.16
2023-01-12T09:49:09.911Z,100533.50
2023-01-12T09:53:16.040Z,100523.69
2023-01-12T09:57:55.440Z,100521.78
2023-01-12T10:01:57.586Z,100514.63
2023-01-12T10:06:02.950Z,100520.91
2023-01-12T10:10:05.380Z,100505.53
2023-01-12T10:14:37.501Z,100502.38
2023-01-12T10:18:47.426Z,100500.94
2023-01-12T10:22:54.581Z,100508.88
2023-01-12T10:27:01.775Z,100504.03
2023-01-12T10:31:04.427Z,100494.22
2023-01-12T10:35:13.611Z,100506.72
2023-01-12T10:39:38.578Z,100518.34
2023-01-12T10:43:42.325Z,100509.09
2023-01-12T10:47:45.868Z,100516.00
2023-01-12T10:51:55.562Z,100508.66
2023-01-12T10:55:59.070Z,100513.03
2023-01-12T11:00:02.854Z,100513.28
2023-01-12T11:04:05.568Z,100534.47
2023-01-12T11:08:22.979Z,100549.28
2023-01-12T11:12:34.497Z,100542.97
2023-01-12T11:16:48.112Z,100543.06
2023-01-12T11:21:00.053Z,100548.66
2023-01-12T11:25:13.107Z,100532.00
2023-01-12T11:29:39.945Z,100530.53
2023-01-12T11:33:49.412Z,100532.34
2023-01-12T11:37:55.473Z,100538.22
2023-01-12T11:42:20.231Z,100542.31
2023-01-12T11:46:40.543Z,100537.09
2023-01-12T11:50:43.041Z,100550.28
2023-01-12T11:54:45.087Z,100551.75
2023-01-12T11:58:55.314Z,100550.03
2023-01-12T12:03:20.377Z,100535.34
2023-01-12T12:07:28.364Z,100535.50
2023-01-12T12:11:42.222Z,100541.41
2023-01-12T12:15:59.260Z,100528.53
2023-01-12T12:20:12.477Z,100526.06
2023-01-12T12:24:41.926Z,100524.13
2023-01-12T12:29:03.019Z,100516.72
2023-01-12T12:33:19.947Z,100510.53
2023-01-12T12:37:40.090Z,100510.78
2023-01-12T12:42:21.256Z,100511.88
2023-01-12T12:46:49.610Z,100516.50
2023-01-12T12:51:05.218Z,100498.19
2023-01-12T12:55:12.224Z,100495.50
2023-01-12T12:59:52.172Z,100490.19
2023-01-12T13:03:58.973Z,100494.38
2023-01-12T13:08:01.120Z,100505.41
2023-01-12T13:12:02.774Z,100495.81
2023-01-12T13:16:20.126Z,100496.31
2023-01-12T13:20:34.518Z,100496.13
2023-01-12T13:24:41.821Z,100485.81
2023-01-12T13:28:43.531Z,100482.16
2023-01-12T13:32:54.762Z,100479.47
2023-01-12T13:37:31.530Z,100481.56
2023-01-12T13:41:54.654Z,100477.78
2023-01-12T13:46:01.804Z,100462.50
2023-01-12T13:50:04.366Z,100456.97
2023-01-12T13:54:10.496Z,100456.06
2023-01-12T13:58:18.226Z,100448.28
2023-01-12T14:02:20.418Z,100452.06
2023-01-12T14:06:38.200Z,100448.16
2023-01-12T14:10:53.647Z,100454.44
2023-01-12T14:15:23.566Z,100448.34
2023-01-12T14:19:28.105Z,100431.97
2023-01-12T14:23:33.773Z,100434.19
2023-01-12T14:27:35.762Z,100439.50
2023-01-12T14:31:44.693Z,100439.56
2023-01-12T14:35:48.821Z,100423.69
2023-01-12T14:39:50.905Z,100416.44
2023-01-12T14:44:12.020Z,100410.72
2023-01-12T14:48:28.627Z,100404.84
2023-01-12T14:52:32.949Z,100399.69
2023-01-12T14:56:49.137Z,100402.44
2023-01-12T15:00:51.293Z,100393.16
2023-01-12T15:04:56.077Z,100388.59
2023-01-12T15:09:02.929Z,100379.19
2023-01-12T15:13:32.923Z,100366.94
2023-01-12T15:17:53.485Z,100357.94
2023-01-12T15:22:15.337Z,100355.50
2023-01-12T15:26:18.137Z,100349.63
2023-01-12T15:30:20.336Z,100347.22
2023-01-12T15:34:22.283Z,100351.41
2023-01-12T15:38:28.122Z,100349.19
2023-01-12T15:42:30.034Z,100353.31
2023-01-12T15:46:32.020Z,100353.56
2023-01-12T15:50:37.596Z,100360.53
2023-01-12T15:54:39.748Z,100371.63
2023-01-12T15:58:41.778Z,100389.56
2023-01-12T16:02:45.616Z,100381.28
2023-01-12T16:06:49.069Z,100376.66
2023-01-12T16:11:09.329Z,100368.91
2023-01-12T16:15:20.282Z,100373.31
2023-01-12T16:19:22.443Z,100364.00
2023-01-12T16:23:24.456Z,100358.84
2023-01-12T16:27:27.148Z,100344.56
2023-01-12T16:31:29.261Z,100339.28
2023-01-12T16:35:33.181Z,100343.78
2023-01-12T16:39:35.071Z,100328.53
2023-01-12T16:43:38.117Z,100322.56
2023-01-12T16:47:40.124Z,100314.69
2023-01-12T16:51:42.086Z,100327.47
2023-01-12T16:55:44.021Z,100321.47
2023-01-12T16:59:46.198Z,100318.41
2023-01-12T17:03:49.078Z,100311.88
2023-01-12T17:07:51.354Z,100311.69
2023-01-12T17:11:54.919Z,100316.06
2023-01-12T17:15:57.178Z,100308.56
2023-01-12T17:19:59.645Z,100298.31
2023-01-12T17:24:01.535Z,100295.91
2023-01-12T17:28:03.528Z,100290.56
2023-01-12T17:32:07.054Z,100281.50
2023-01-12T17:36:11.645Z,100282.63
2023-01-12T17:40:13.880Z,100284.44
2023-01-12T17:44:16.181Z,100270.44
2023-01-12T17:48:19.637Z,100276.63
2023-01-12T17:52:22.056Z,100277.22
2023-01-12T17:56:25.411Z,100263.06
2023-01-12T18:00:27.547Z,100267.31
2023-01-12T18:04:29.709Z,100261.78
2023-01-12T18:08:31.905Z,100266.47
2023-01-12T18:12:34.007Z,100265.47
2023-01-12T18:16:36.257Z,100271.94
2023-01-12T18:20:38.324Z,100278.50
2023-01-12T18:24:40.481Z,100265.69
2023-01-12T18:28:42.967Z,100260.47
2023-01-12T18:32:45.359Z,100257.84
2023-01-12T18:36:47.628Z,100246.78
2023-01-12T18:41:09.680Z,100234.78
2023-01-12T18:45:11.865Z,100234.34
2023-01-12T18:49:13.869Z,100229.84
2023-01-12T18:53:33.556Z,100228.94
2023-01-12T18:57:35.604Z,100223.41
2023-01-12T19:01:37.790Z,100221.19
2023-01-12T19:05:53.262Z,100219.09
2023-01-12T19:09:56.615Z,100225.03
2023-01-12T19:14:16.849Z,100234.41
2023-01-12T19:18:19.080Z,100224.72
2023-01-12T19:22:39.863Z,100229.25
2023-01-12T19:27:01.159Z,100233.13
2023-01-12T19:31:06.547Z,100227.16
2023-01-12T19:35:11.377Z,100231.78
2023-01-12T19:39:13.956Z,100232.13
2023-01-12T19:43:20.465Z,100242.63
2023-01-12T19:47:22.286Z,100246.13
2023-01-12T19:51:24.458Z,100237.84
2023-01-12T19:55:26.842Z,100247.53
2023-01-12T19:59:28.939Z,100248.22
2023-01-12T20:03:31.098Z,100260.00
2023-01-12T20:07:33.325Z,100255.41
2023-01-12T20:11:35.342Z,100264.34
2023-01-12T20:15:38.991Z,100257.31
2023-01-12T20:19:41.141Z,100267.41
2023-01-12T20:23:43.244Z,100269.50
2023-01-12T20:27:49.124Z,100268.47
2023-01-12T20:31:52.855Z,100274.16
2023-01-12T20:35:55.266Z,100276.00
2023-01-12T20:39:58.069Z,100284.41
2023-01-12T20:44:00.198Z,100284.94
2023-01-12T20:48:02.190Z,100280.25
2023-01-12T20:52:04.219Z,100273.47
2023-01-12T20:56:07.064Z,100264.75
2023-01-12T21:00:14.437Z,100268.81
2023-01-12T21:04:19.358Z,100263.38
2023-01-12T21:08:21.385Z,100263.66
2023-01-12T21:12:24.317Z,100263.31
2023-01-12T21:16:28.498Z,100262.75
2023-01-12T21:20:30.604Z,100262.00
2023-01-12T21:24:32.309Z,100267.97
2023-01-12T21:28:37.060Z,100268.88
2023-01-12T21:32:39.302Z,100254.44
2023-01-12T21:36:41.405Z,100257.25
2023-01-12T21:40:43.329Z,100247.88
2023-01-12T21:44:45.533Z,100249.91
2023-01-12T21:48:47.551Z,100241.75
2023-01-12T21:52:49.560Z,100253.09
2023-01-12T21:56:51.546Z,100250.47
2023-01-12T22:00:53.956Z,100243.88
2023-01-12T22:04:55.974Z,100250.75
2023-01-12T22:08:58.732Z,100253.09
2023-01-12T22:13:02.722Z,100243.44
2023-01-12T22:17:04.666Z,100228.44
2023-01-12T22:21:08.802Z,100221.78
2023-01-12T22:25:13.040Z,100205.19
2023-01-12T22:29:15.136Z,100199.31
2023-01-12T22:33:17.295Z,100193.41
2023-01-12T22:37:19.200Z,100192.69
2023-01-12T22:41:22.541Z,100184.22
2023-01-12T22:45:24.638Z,100183.59
2023-01-12T22:49:26.622Z,100192.28
2023-01-12T22:53:28.603Z,100182.00
2023-01-12T22:57:30.853Z,100181.94
2023-01-12T23:01:33.401Z,100174.16
2023-01-12T23:05:42.791Z,100180.78
2023-01-12T23:09:44.466Z,100180.78
2023-01-12T23:13:46.885Z,100176.88
2023-01-12T23:17:48.845Z,100184.78
2023-01-12T23:21:50.567Z,100188.59
2023-01-12T23:25:52.544Z,100186.66
2023-01-12T23:29:54.202Z,100190.75
2023-01-12T23:33:59.430Z,100195.69
2023-01-12T23:38:01.612Z,100186.56
2023-01-12T23:42:03.542Z,100188.94
2023-01-12T23:46:05.799Z,100182.16
2023-01-12T23:50:08.524Z,100188.00
2023-01-12T23:54:16.383Z,100184.94
2023-01-12T23:58:18.913Z,100189.03
